Time;durP1;ratioP1;P1;durP2;ratioP2;P2;SDS_P1;SDS_P2;PMS_P1;PMS_P2;Temp;Humidity;BMP_temperature;BMP_pressure;BME280_temperature;BME280_humidity;BME280_pressure;Samples;Min_cycle;Max_cycle;Signal;HPM_P1;HPM_P2
2023/05/14 00:00:51;;;;;;;12.57;11.37;;;17.60;44.60;;;;;;5092260;28;20218;-54
2023/05/14 00:03:17;;;;;;;11.80;10.80;;;17.50;44.40;;;;;;5092912;28;20196;-53
2023/05/14 00:05:43;;;;;;;15.10;12.83;;;17.50;44.40;;;;;;5092753;28;20225;-53
2023/05/14 00:08:08;;;;;;;12.77;11.20;;;17.50;44.40;;;;;;5092604;28;20171;-53
2023/05/14 00:10:34;;;;;;;12.17;10.87;;;17.50;44.50;;;;;;5092218;28;20238;-52
2023/05/14 00:13:00;;;;;;;12.30;11.10;;;17.50;44.50;;;;;;5092471;28;20196;-54
2023/05/14 00:15:26;;;;;;;13.27;11.90;;;17.50;44.50;;;;;;5092688;28;20195;-54
2023/05/14 00:17:51;;;;;;;11.97;10.83;;;17.50;44.50;;;;;;5091638;28;20172;-53
2023/05/14 00:20:17;;;;;;;12.07;10.93;;;17.50;44.70;;;;;;5092020;28;20192;-53
2023/05/14 00:22:43;;;;;;;12.37;11.27;;;17.50;44.70;;;;;;5092565;28;20200;-53
2023/05/14 00:25:09;;;;;;;11.87;10.80;;;17.50;44.60;;;;;;5092305;28;20394;-52
2023/05/14 00:27:36;;;;;;;13.17;11.87;;;17.50;44.70;;;;;;5092459;28;20168;-52
2023/05/14 00:30:05;;;;;;;13.30;12.05;;;17.50;44.80;;;;;;5091816;28;20414;-53
2023/05/14 00:32:31;;;;;;;15.63;13.95;;;17.60;44.80;;;;;;5092146;28;20259;-52
2023/05/14 00:34:57;;;;;;;14.18;12.77;;;17.50;44.70;;;;;;5090780;28;20175;-53
2023/05/14 00:37:23;;;;;;;12.50;11.40;;;17.50;44.70;;;;;;5092014;28;20180;-52
2023/05/14 00:39:49;;;;;;;13.13;11.93;;;17.50;44.70;;;;;;5091854;28;20200;-52
2023/05/14 00:42:14;;;;;;;12.10;10.97;;;17.50;44.70;;;;;;5092031;28;20198;-53
2023/05/14 00:44:40;;;;;;;12.43;11.23;;;17.50;44.90;;;;;;5092179;28;20522;-53
2023/05/14 00:47:06;;;;;;;12.27;11.07;;;17.50;45.00;;;;;;5092107;28;20163;-54
2023/05/14 00:49:33;;;;;;;12.82;11.65;;;17.40;44.90;;;;;;5091869;28;20203;-53
2023/05/14 00:51:59;;;;;;;13.52;12.00;;;17.50;45.00;;;;;;5092002;28;20172;-53
2023/05/14 00:54:26;;;;;;;13.25;11.68;;;17.50;44.90;;;;;;5090814;28;20259;-53
2023/05/14 00:56:53;;;;;;;14.43;12.52;;;17.50;44.90;;;;;;5091821;28;20164;-53
2023/05/14 00:59:19;;;;;;;10.88;9.77;;;17.50;44.70;;;;;;5091731;28;20160;-53
2023/05/14 01:01:45;;;;;;;12.50;11.20;;;17.50;44.50;;;;;;5091911;28;20195;-53
2023/05/14 01:04:11;;;;;;;12.40;11.10;;;17.50;44.40;;;;;;5092170;28;20219;-53
2023/05/14 01:06:58;;;;;;;12.27;10.98;;;17.50;44.50;;;;;;5091944;28;20164;-54
2023/05/14 01:09:40;;;;;;;12.98;11.68;;;17.50;44.50;;;;;;5091518;28;20172;-54
2023/05/14 01:12:36;;;;;;;12.75;11.50;;;17.50;44.50;;;;;;5091965;28;20164;-52
2023/05/14 01:15:17;;;;;;;12.15;11.05;;;17.50;45.30;;;;;;5091918;28;20168;-53
2023/05/14 01:17:50;;;;;;;13.10;11.75;;;17.30;44.60;;;;;;5091837;28;20515;-54
2023/05/14 01:20:17;;;;;;;12.07;10.88;;;17.30;44.40;;;;;;5091613;28;20214;-52
2023/05/14 01:22:42;;;;;;;12.73;11.48;;;17.30;44.60;;;;;;5091776;28;20253;-52
2023/05/14 01:25:08;;;;;;;12.60;11.30;;;17.30;44.60;;;;;;5092095;28;20180;-53
2023/05/14 01:27:59;;;;;;;15.25;10.80;;;17.30;44.90;;;;;;5092320;28;20172;-53
2023/05/14 01:30:37;;;;;;;10.63;9.63;;;17.30;44.80;;;;;;5095349;28;20188;-52
2023/05/14 01:33:11;;;;;;;12.85;11.65;;;17.30;44.70;;;;;;5095553;28;20541;-54
2023/05/14 01:35:38;;;;;;;10.70;9.60;;;17.30;44.90;;;;;;5095636;28;20192;-53
2023/05/14 01:38:08;;;;;;;12.88;11.57;;;17.20;44.90;;;;;;5095542;28;20175;-53
2023/05/14 01:40:35;;;;;;;10.70;9.80;;;17.20;45.00;;;;;;5095352;28;20223;-53
2023/05/14 01:43:02;;;;;;;10.70;9.77;;;17.20;45.00;;;;;;5093948;28;20207;-53
2023/05/14 01:45:29;;;;;;;11.63;10.45;;;17.10;44.90;;;;;;5095459;28;20172;-53
2023/05/14 01:47:56;;;;;;;10.98;9.93;;;17.10;45.00;;;;;;5095500;28;20164;-52
2023/05/14 01:50:22;;;;;;;9.98;8.95;;;17.10;44.70;;;;;;5094919;28;20188;-54
2023/05/14 01:52:50;;;;;;;11.50;10.50;;;17.20;44.60;;;;;;5095166;28;20176;-54
2023/05/14 01:55:17;;;;;;;11.43;10.25;;;17.10;44.50;;;;;;5094971;28;20180;-53
2023/05/14 01:57:42;;;;;;;10.10;9.20;;;17.10;44.60;;;;;;5094977;28;20215;-52
2023/05/14 02:00:08;;;;;;;11.63;10.53;;;17.20;44.70;;;;;;5094658;28;20224;-52
2023/05/14 02:02:34;;;;;;;11.50;10.50;;;17.20;44.80;;;;;;5095090;28;20657;-53
2023/05/14 02:05:00;;;;;;;10.40;9.40;;;17.20;44.90;;;;;;5094999;28;20175;-52
2023/05/14 02:07:26;;;;;;;11.57;10.47;;;17.20;44.90;;;;;;5094882;28;20417;-53
2023/05/14 02:09:52;;;;;;;15.90;10.30;;;17.20;44.90;;;;;;5094252;28;20520;-52
2023/05/14 02:12:18;;;;;;;11.00;10.03;;;17.20;45.00;;;;;;5094804;28;20393;-51
2023/05/14 02:14:43;;;;;;;11.87;10.67;;;17.10;45.00;;;;;;5093388;28;20226;-52
2023/05/14 02:17:09;;;;;;;12.70;11.40;;;17.10;44.90;;;;;;5094876;28;20161;-54
2023/05/14 02:19:35;;;;;;;12.30;11.10;;;17.10;44.80;;;;;;5094510;28;20178;-53
2023/05/14 02:22:00;;;;;;;12.13;10.90;;;17.00;44.60;;;;;;5094477;28;20171;-53
2023/05/14 02:24:26;;;;;;;11.47;10.47;;;17.00;44.40;;;;;;5094264;28;20220;-53
2023/05/14 02:26:52;;;;;;;12.73;11.43;;;17.00;44.40;;;;;;5094348;28;20168;-53
2023/05/14 02:29:18;;;;;;;11.77;10.60;;;17.00;44.30;;;;;;5094021;28;20174;-54
2023/05/14 02:31:43;;;;;;;11.40;10.30;;;16.90;44.30;;;;;;5094199;28;20527;-53
2023/05/14 02:34:09;;;;;;;12.33;11.13;;;16.90;44.10;;;;;;5094213;28;20183;-53
2023/05/14 02:36:35;;;;;;;13.00;11.80;;;16.90;44.00;;;;;;5094238;28;20186;-53
2023/05/14 02:39:01;;;;;;;12.23;10.93;;;16.90;43.90;;;;;;5093511;28;20452;-54
2023/05/14 02:41:27;;;;;;;12.80;11.50;;;16.80;44.00;;;;;;5093677;28;20313;-53
2023/05/14 02:43:53;;;;;;;13.63;11.60;;;16.80;44.10;;;;;;5094162;28;20191;-52
2023/05/14 02:46:18;;;;;;;14.77;13.30;;;16.70;44.20;;;;;;5093990;28;20174;-53
2023/05/14 02:48:44;;;;;;;12.90;11.57;;;16.60;44.30;;;;;;5094209;28;20405;-53
2023/05/14 02:51:10;;;;;;;13.00;11.70;;;16.60;44.30;;;;;;5092323;28;20603;-54
2023/05/14 02:53:36;;;;;;;12.98;11.70;;;16.50;44.40;;;;;;5093965;28;20213;-53
2023/05/14 02:56:02;;;;;;;13.23;11.80;;;16.50;44.30;;;;;;5094050;28;20176;-53
2023/05/14 02:58:28;;;;;;;12.93;11.03;;;16.50;44.20;;;;;;5093933;28;20198;-53
2023/05/14 03:00:54;;;;;;;12.07;10.80;;;16.40;44.20;;;;;;5093331;28;20430;-54
2023/05/14 03:03:19;;;;;;;13.33;12.13;;;16.30;44.20;;;;;;5092290;28;20195;-54
2023/05/14 03:05:45;;;;;;;14.33;12.93;;;16.30;44.30;;;;;;5093661;28;20405;-52
2023/05/14 03:08:11;;;;;;;14.20;12.50;;;16.20;44.50;;;;;;5093498;28;20630;-53
2023/05/14 03:10:37;;;;;;;13.97;12.43;;;16.10;44.60;;;;;;5093082;28;20684;-53
2023/05/14 03:13:02;;;;;;;14.93;12.83;;;16.00;44.70;;;;;;5093529;28;20179;-53
2023/05/14 03:15:28;;;;;;;13.80;12.03;;;16.00;44.80;;;;;;5093682;28;20180;-54
2023/05/14 03:17:54;;;;;;;12.50;11.27;;;15.90;44.70;;;;;;5093453;28;20168;-55
2023/05/14 03:20:20;;;;;;;13.27;12.00;;;16.00;45.30;;;;;;5093082;28;20199;-53
2023/05/14 03:22:46;;;;;;;12.30;11.20;;;15.90;44.50;;;;;;5093264;28;20290;-54
2023/05/14 03:25:11;;;;;;;12.90;11.60;;;15.90;44.30;;;;;;5093597;28;20402;-55
2023/05/14 03:27:37;;;;;;;14.37;12.90;;;15.90;44.20;;;;;;5093161;28;20934;-52
2023/05/14 03:30:03;;;;;;;14.07;12.70;;;15.90;44.10;;;;;;5092827;28;20188;-53
2023/05/14 03:32:29;;;;;;;13.25;12.05;;;15.80;44.00;;;;;;5093040;28;20176;-55
2023/05/14 03:34:55;;;;;;;12.83;11.00;;;15.80;44.10;;;;;;5093086;28;20187;-54
2023/05/14 03:37:21;;;;;;;14.27;11.60;;;15.70;44.00;;;;;;5092976;28;20406;-51
2023/05/14 03:39:47;;;;;;;13.47;12.20;;;15.70;44.20;;;;;;5092599;28;20751;-52
2023/05/14 03:42:13;;;;;;;15.37;13.97;;;15.60;44.30;;;;;;5091613;28;20441;-52
2023/05/14 03:44:39;;;;;;;12.45;11.20;;;15.60;44.30;;;;;;5091665;28;20298;-52
2023/05/14 03:47:05;;;;;;;15.05;13.65;;;15.60;44.30;;;;;;5074629;28;20199;-54
2023/05/14 03:49:31;;;;;;;12.30;11.10;;;15.50;44.20;;;;;;5091452;28;20199;-53
2023/05/14 03:51:58;;;;;;;12.83;11.53;;;15.50;44.40;;;;;;5091201;28;20406;-54
2023/05/14 03:54:24;;;;;;;11.68;10.70;;;15.50;44.60;;;;;;5092656;28;20175;-53
2023/05/14 03:56:50;;;;;;;14.65;13.35;;;15.50;44.60;;;;;;5091604;28;20318;-52
2023/05/14 03:59:16;;;;;;;15.23;13.63;;;15.50;44.50;;;;;;5092471;28;20254;-53
2023/05/14 04:01:43;;;;;;;12.90;11.60;;;15.40;44.60;;;;;;5092636;28;20429;-53
2023/05/14 04:04:09;;;;;;;12.68;11.57;;;15.40;44.70;;;;;;5092525;28;20456;-53
2023/05/14 04:06:35;;;;;;;13.52;12.13;;;15.40;44.70;;;;;;5092392;28;20180;-52
2023/05/14 04:09:02;;;;;;;13.40;11.95;;;15.40;45.00;;;;;;5092199;28;20175;-52
2023/05/14 04:11:28;;;;;;;13.20;11.90;;;15.40;45.00;;;;;;5092279;28;20279;-53
2023/05/14 04:13:54;;;;;;;15.40;14.00;;;15.40;45.00;;;;;;5092404;28;20257;-51
2023/05/14 04:16:19;;;;;;;14.10;12.80;;;15.50;45.10;;;;;;5092352;28;20406;-52
2023/05/14 04:18:45;;;;;;;15.13;13.70;;;15.60;44.90;;;;;;5092333;28;20410;-52
2023/05/14 04:21:11;;;;;;;13.37;11.90;;;15.70;45.00;;;;;;5091956;28;20199;-53
2023/05/14 04:23:37;;;;;;;14.70;13.30;;;15.70;45.00;;;;;;5092297;28;20184;-52
2023/05/14 04:26:03;;;;;;;14.40;12.90;;;15.70;45.20;;;;;;5092241;28;20176;-52
2023/05/14 04:28:30;;;;;;;13.68;12.40;;;15.80;45.30;;;;;;5090873;28;20448;-52
2023/05/14 04:30:55;;;;;;;14.27;13.00;;;15.90;45.40;;;;;;5092182;28;20196;-52
2023/05/14 04:33:21;;;;;;;13.80;12.53;;;15.90;45.40;;;;;;5092185;28;20591;-52
2023/05/14 04:35:47;;;;;;;14.27;12.97;;;16.00;45.20;;;;;;5092373;28;20412;-53
2023/05/14 04:38:13;;;;;;;14.47;13.07;;;16.10;45.20;;;;;;5090797;28;20300;-53
2023/05/14 04:40:40;;;;;;;13.80;12.50;;;16.20;45.10;;;;;;5091759;28;21003;-53
2023/05/14 04:43:06;;;;;;;12.93;11.73;;;16.30;45.20;;;;;;5091940;28;20959;-52
2023/05/14 04:45:32;;;;;;;13.07;11.85;;;16.30;45.10;;;;;;5092051;28;20707;-54
2023/05/14 04:47:58;;;;;;;13.43;12.20;;;16.40;45.00;;;;;;5092070;28;20179;-52
2023/05/14 04:50:24;;;;;;;11.93;10.73;;;16.40;45.00;;;;;;5073726;28;20471;-52
2023/05/14 04:52:50;;;;;;;13.85;12.45;;;16.50;45.10;;;;;;5091918;28;20643;-53
2023/05/14 04:55:16;;;;;;;13.23;11.77;;;16.50;45.00;;;;;;5090817;28;20283;-52
2023/05/14 04:57:42;;;;;;;13.03;11.73;;;16.50;45.60;;;;;;5091924;28;20895;-52
2023/05/14 05:00:08;;;;;;;11.60;10.50;;;16.60;44.90;;;;;;5091654;28;20753;-53
2023/05/14 05:02:35;;;;;;;12.40;11.20;;;16.70;45.10;;;;;;5092104;28;21024;-53
2023/05/14 05:05:01;;;;;;;14.55;13.00;;;16.80;45.10;;;;;;5096033;28;20491;-53
2023/05/14 05:07:27;;;;;;;13.52;12.30;;;16.90;45.20;;;;;;5095964;28;20188;-54
2023/05/14 05:09:53;;;;;;;13.30;12.10;;;17.00;45.10;;;;;;5095454;28;20744;-52
2023/05/14 05:12:18;;;;;;;12.87;11.60;;;17.10;45.00;;;;;;5095823;28;20164;-52
2023/05/14 05:14:44;;;;;;;13.33;12.10;;;17.20;45.60;;;;;;5095877;28;20174;-52
2023/05/14 05:17:10;;;;;;;13.87;12.40;;;17.30;44.40;;;;;;5095743;28;20168;-53
2023/05/14 05:19:35;;;;;;;12.47;11.40;;;17.40;44.20;;;;;;5095112;28;20172;-54
2023/05/14 05:22:01;;;;;;;13.50;12.17;;;17.50;44.10;;;;;;5095908;28;20211;-53
2023/05/14 05:24:27;;;;;;;12.17;11.00;;;17.50;43.80;;;;;;5095876;28;20725;-52
2023/05/14 05:26:54;;;;;;;13.60;12.30;;;17.50;43.40;;;;;;5095722;28;20168;-52
2023/05/14 05:29:21;;;;;;;13.85;12.55;;;17.60;43.60;;;;;;5095359;28;20179;-52
2023/05/14 05:31:47;;;;;;;12.40;11.20;;;17.60;43.80;;;;;;5094771;28;20211;-54
2023/05/14 05:34:13;;;;;;;13.52;11.80;;;17.80;43.40;;;;;;5095361;28;20183;-52
2023/05/14 05:36:38;;;;;;;12.07;10.87;;;17.90;42.80;;;;;;5095428;28;20172;-52
2023/05/14 05:39:04;;;;;;;13.97;11.80;;;17.90;42.90;;;;;;5095536;28;20470;-53
2023/05/14 05:41:30;;;;;;;10.83;9.70;;;18.00;42.80;;;;;;5095160;28;20274;-53
2023/05/14 05:43:56;;;;;;;11.27;10.17;;;18.10;42.90;;;;;;5095354;28;20206;-51
2023/05/14 05:46:21;;;;;;;11.60;10.40;;;18.20;42.90;;;;;;5093937;28;20525;-52
2023/05/14 05:48:47;;;;;;;11.17;9.77;;;18.30;42.60;;;;;;5095165;28;20251;-53
2023/05/14 05:51:13;;;;;;;12.10;10.90;;;18.40;42.40;;;;;;5094885;28;20231;-51
2023/05/14 05:53:39;;;;;;;11.57;10.37;;;18.50;42.10;;;;;;5095005;28;20220;-54
2023/05/14 05:56:05;;;;;;;13.30;11.90;;;18.70;41.70;;;;;;5095094;28;20398;-54
2023/05/14 05:58:32;;;;;;;11.07;9.85;;;18.70;40.90;;;;;;5093814;28;20691;-52
2023/05/14 06:00:58;;;;;;;11.23;9.80;;;18.80;41.00;;;;;;5094582;28;20188;-51
2023/05/14 06:03:26;;;;;;;9.95;8.95;;;18.90;41.20;;;;;;5094832;28;20710;-52
2023/05/14 06:05:52;;;;;;;11.20;10.20;;;19.00;41.20;;;;;;5094837;28;20255;-51
2023/05/14 06:08:18;;;;;;;12.17;11.10;;;19.10;40.80;;;;;;5095035;28;20263;-53
2023/05/14 06:10:44;;;;;;;15.00;10.97;;;19.20;40.70;;;;;;5094424;28;20696;-51
2023/05/14 06:13:10;;;;;;;9.93;8.93;;;19.40;40.60;;;;;;5094687;28;20180;-51
2023/05/14 06:15:36;;;;;;;10.27;9.27;;;19.50;40.60;;;;;;5093131;28;20187;-54
2023/05/14 06:18:02;;;;;;;11.20;10.20;;;19.60;40.20;;;;;;5094739;28;21170;-51
2023/05/14 06:20:28;;;;;;;12.10;9.73;;;19.80;39.10;;;;;;5094206;28;20270;-52
2023/05/14 06:22:53;;;;;;;11.40;10.20;;;19.80;38.60;;;;;;5093012;28;20442;-55
2023/05/14 06:25:19;;;;;;;9.73;8.83;;;19.90;39.20;;;;;;5076276;28;20175;-53
2023/05/14 06:27:45;;;;;;;11.33;10.23;;;19.90;40.10;;;;;;5094391;28;20179;-52
2023/05/14 06:30:11;;;;;;;10.60;9.57;;;20.10;39.60;;;;;;5093975;28;20194;-53
2023/05/14 06:32:37;;;;;;;10.68;9.68;;;20.20;39.20;;;;;;5094272;28;20183;-54
2023/05/14 06:35:03;;;;;;;10.00;9.10;;;20.30;39.20;;;;;;5094300;28;20175;-51
2023/05/14 06:37:29;;;;;;;10.88;9.77;;;20.40;39.20;;;;;;5094457;28;20172;-53
2023/05/14 06:39:54;;;;;;;10.40;9.43;;;20.50;37.90;;;;;;5092501;28;20612;-53
2023/05/14 06:42:20;;;;;;;10.10;9.27;;;20.50;36.90;;;;;;5094029;28;20178;-51
2023/05/14 06:44:46;;;;;;;11.07;9.97;;;20.50;37.60;;;;;;5093926;28;20179;-52
2023/05/14 06:47:12;;;;;;;10.63;9.63;;;20.50;38.10;;;;;;5094322;28;20180;-53
2023/05/14 06:49:38;;;;;;;9.70;8.77;;;20.60;37.50;;;;;;5092379;28;20263;-54
2023/05/14 06:52:04;;;;;;;11.90;9.63;;;20.70;37.30;;;;;;5093958;28;20172;-52
2023/05/14 06:54:30;;;;;;;10.77;9.77;;;20.80;37.40;;;;;;5093881;28;20176;-54
2023/05/14 06:56:56;;;;;;;9.80;8.80;;;20.80;36.60;;;;;;5094097;28;20179;-54
2023/05/14 06:59:22;;;;;;;10.13;9.23;;;20.90;36.90;;;;;;5093724;28;20180;-51
2023/05/14 07:01:47;;;;;;;10.50;9.40;;;21.00;37.60;;;;;;5093821;28;20553;-55
2023/05/14 07:04:13;;;;;;;10.00;9.00;;;21.10;36.80;;;;;;5093687;28;20559;-53
2023/05/14 07:06:39;;;;;;;10.50;9.40;;;21.20;36.70;;;;;;5093604;28;20625;-52
2023/05/14 07:09:05;;;;;;;9.33;8.43;;;21.30;36.30;;;;;;5093239;28;20644;-54
2023/05/14 07:11:32;;;;;;;10.40;9.27;;;21.30;36.70;;;;;;5093405;28;20192;-52
2023/05/14 07:13:58;;;;;;;13.43;9.50;;;21.40;36.60;;;;;;5093326;28;20653;-52
2023/05/14 07:16:25;;;;;;;9.10;8.20;;;21.50;36.60;;;;;;5093447;28;20274;-54
2023/05/14 07:18:50;;;;;;;9.93;9.00;;;21.70;35.70;;;;;;5093429;28;20188;-54
2023/05/14 07:21:16;;;;;;;10.27;9.27;;;21.90;36.50;;;;;;5093122;28;20430;-51
2023/05/14 07:23:42;;;;;;;8.80;8.10;;;22.00;36.30;;;;;;5093333;28;21058;-53
2023/05/14 07:26:08;;;;;;;8.77;7.87;;;22.30;37.40;;;;;;5093048;28;20390;-55
2023/05/14 07:28:34;;;;;;;8.60;7.87;;;22.40;36.80;;;;;;5093584;28;20184;-51
2023/05/14 07:31:00;;;;;;;8.20;7.50;;;22.60;35.00;;;;;;5093104;28;20195;-51
2023/05/14 07:33:26;;;;;;;9.23;8.33;;;22.60;35.10;;;;;;5093520;28;20172;-54
2023/05/14 07:35:53;;;;;;;9.07;7.80;;;22.70;35.40;;;;;;5093176;28;20634;-55
2023/05/14 07:38:19;;;;;;;8.30;7.50;;;22.60;34.20;;;;;;5093209;28;20502;-51
2023/05/14 07:40:45;;;;;;;7.83;7.13;;;22.60;34.10;;;;;;5092859;28;20434;-51
2023/05/14 07:43:11;;;;;;;8.13;7.43;;;22.60;34.80;;;;;;5091683;28;20533;-54
2023/05/14 07:45:40;;;;;;;7.50;6.80;;;22.70;34.10;;;;;;5093325;28;20491;-51
2023/05/14 07:48:06;;;;;;;7.33;6.73;;;22.70;34.50;;;;;;5093195;28;20167;-52
2023/05/14 07:50:32;;;;;;;6.80;6.20;;;22.90;33.50;;;;;;5092612;28;20772;-54
2023/05/14 07:52:57;;;;;;;7.77;7.00;;;22.90;32.10;;;;;;5092778;28;20180;-53
2023/05/14 07:55:23;;;;;;;7.70;6.90;;;22.70;32.30;;;;;;5093091;28;20190;-51
2023/05/14 07:57:49;;;;;;;6.97;6.20;;;22.60;33.10;;;;;;5092845;28;20176;-52
2023/05/14 08:00:15;;;;;;;6.80;6.20;;;22.70;34.10;;;;;;5092732;28;20437;-52
2023/05/14 08:02:41;;;;;;;5.67;5.17;;;22.70;33.20;;;;;;5092948;28;20507;-53
2023/05/14 08:05:08;;;;;;;6.47;5.90;;;22.70;33.90;;;;;;5092655;28;20414;-54
2023/05/14 08:07:34;;;;;;;5.30;4.80;;;22.90;32.90;;;;;;5092553;28;20421;-52
2023/05/14 08:10:00;;;;;;;6.10;5.53;;;23.00;31.50;;;;;;5092172;28;20449;-52
2023/05/14 08:12:27;;;;;;;6.90;6.20;;;22.80;31.20;;;;;;5092566;28;20467;-54
2023/05/14 08:14:55;;;;;;;6.60;6.00;;;22.80;31.40;;;;;;5092779;28;20522;-54
2023/05/14 08:17:20;;;;;;;4.90;4.40;;;22.80;32.20;;;;;;5092552;28;20398;-54
2023/05/14 08:19:46;;;;;;;5.83;5.30;;;23.00;31.90;;;;;;5092121;28;20436;-52
2023/05/14 08:22:12;;;;;;;4.80;4.30;;;23.20;31.40;;;;;;5090978;28;20467;-54
2023/05/14 08:24:38;;;;;;;5.70;5.10;;;23.20;31.60;;;;;;5091017;28;20471;-54
2023/05/14 08:27:05;;;;;;;5.63;5.13;;;23.30;30.60;;;;;;5092491;28;20410;-51
2023/05/14 08:29:31;;;;;;;4.53;4.13;;;23.30;31.00;;;;;;5091959;28;20208;-51
2023/05/14 08:31:56;;;;;;;5.97;5.40;;;23.30;31.00;;;;;;5092376;28;21174;-54
2023/05/14 08:34:22;;;;;;;6.87;6.27;;;22.50;30.40;;;;;;5092187;28;20180;-51
2023/05/14 08:36:48;;;;;;;7.10;6.17;;;23.30;30.20;;;;;;5091928;28;20175;-52
2023/05/14 08:39:14;;;;;;;6.43;5.83;;;23.30;31.90;;;;;;5091357;28;20179;-54
2023/05/14 08:41:40;;;;;;;6.73;5.90;;;23.50;32.30;;;;;;5091183;28;20208;-52
2023/05/14 08:44:18;;;;;;;6.73;5.67;;;23.60;30.70;;;;;;5091958;28;20453;-52
2023/05/14 08:46:44;;;;;;;5.57;5.07;;;23.60;29.90;;;;;;5092088;28;20451;-53
2023/05/14 08:49:19;;;;;;;5.27;4.77;;;23.50;30.20;;;;;;5091850;28;20481;-52
2023/05/14 08:51:48;;;;;;;5.20;4.70;;;23.40;29.80;;;;;;5092188;28;20202;-52
2023/05/14 08:54:17;;;;;;;5.83;5.30;;;23.40;30.50;;;;;;5092021;28;20410;-54
2023/05/14 08:56:45;;;;;;;6.97;6.37;;;23.50;31.00;;;;;;5090599;28;20425;-51
2023/05/14 08:59:11;;;;;;;7.50;6.30;;;23.60;31.30;;;;;;5093361;28;20894;-52
2023/05/14 09:01:43;;;;;;;7.73;6.93;;;23.80;31.50;;;;;;5093078;28;20453;-55
2023/05/14 09:04:11;;;;;;;5.60;5.10;;;24.00;31.10;;;;;;5093280;28;20997;-56
2023/05/14 09:06:39;;;;;;;7.10;6.50;;;24.10;30.50;;;;;;5092760;28;20401;-55
2023/05/14 09:09:05;;;;;;;7.60;6.70;;;24.10;31.00;;;;;;5093018;28;20899;-56
2023/05/14 09:11:31;;;;;;;8.17;7.37;;;24.20;30.40;;;;;;5093086;28;20432;-56
2023/05/14 09:13:57;;;;;;;6.27;5.53;;;24.10;30.40;;;;;;5092652;28;20414;-55
2023/05/14 09:16:24;;;;;;;6.30;5.70;;;24.00;30.20;;;;;;5091776;28;20579;-56
2023/05/14 09:18:50;;;;;;;6.07;5.57;;;23.80;30.10;;;;;;5091649;28;20168;-54
2023/05/14 09:21:17;;;;;;;10.40;5.80;;;23.60;30.10;;;;;;5091372;28;20425;-56
2023/05/14 09:23:44;;;;;;;5.50;5.00;;;23.50;30.30;;;;;;5091582;28;20814;-55
2023/05/14 09:26:10;;;;;;;5.73;5.20;;;23.40;30.40;;;;;;5091497;28;20452;-55
2023/05/14 09:28:42;;;;;;;6.30;5.70;;;23.40;29.40;;;;;;5091455;28;20417;-56
2023/05/14 09:31:08;;;;;;;4.50;4.10;;;23.40;30.10;;;;;;5091486;28;20425;-56
2023/05/14 09:33:34;;;;;;;6.10;5.60;;;23.30;28.70;;;;;;5091503;28;20413;-53
2023/05/14 09:36:01;;;;;;;6.27;5.43;;;23.20;29.60;;;;;;5091801;28;20598;-53
2023/05/14 09:38:31;;;;;;;6.67;6.10;;;23.10;30.50;;;;;;5090608;28;20423;-53
2023/05/14 09:40:58;;;;;;;5.97;5.40;;;23.10;30.40;;;;;;5091438;28;20505;-53
2023/05/14 09:43:24;;;;;;;6.50;5.77;;;23.20;30.50;;;;;;5091518;28;20445;-53
2023/05/14 09:45:51;;;;;;;6.10;5.30;;;23.20;30.40;;;;;;5090175;28;20414;-53
2023/05/14 09:48:16;;;;;;;6.07;5.50;;;23.20;30.90;;;;;;5091339;28;20414;-53
2023/05/14 09:50:43;;;;;;;7.10;5.53;;;23.30;31.30;;;;;;5094723;28;20432;-53
2023/05/14 09:53:10;;;;;;;6.63;5.90;;;23.50;30.30;;;;;;5095095;28;20251;-53
2023/05/14 09:55:36;;;;;;;6.60;4.97;;;23.50;30.80;;;;;;5094928;28;20417;-53
2023/05/14 09:58:03;;;;;;;7.33;6.00;;;23.70;30.20;;;;;;5094980;28;20436;-52
2023/05/14 10:00:31;;;;;;;5.90;5.00;;;23.70;30.00;;;;;;5094575;28;20942;-53
2023/05/14 10:02:58;;;;;;;5.00;4.50;;;23.60;28.80;;;;;;5093872;28;20461;-52
2023/05/14 10:05:25;;;;;;;5.97;5.33;;;23.60;29.50;;;;;;5094965;28;20419;-53
2023/05/14 10:07:55;;;;;;;5.23;4.83;;;23.70;29.90;;;;;;5094947;28;20497;-52
2023/05/14 10:10:25;;;;;;;5.70;5.20;;;23.90;30.60;;;;;;5094370;28;20485;-54
2023/05/14 10:12:56;;;;;;;5.83;5.27;;;24.20;29.40;;;;;;5094682;28;20391;-53
2023/05/14 10:15:28;;;;;;;5.73;5.13;;;24.50;30.30;;;;;;5094475;28;20410;-52
2023/05/14 10:18:02;;;;;;;39.37;26.67;;;24.80;29.00;;;;;;5094606;28;20963;-53
2023/05/14 10:20:29;;;;;;;7.30;5.90;;;25.00;28.60;;;;;;5094231;28;20430;-52
2023/05/14 10:22:57;;;;;;;6.10;5.50;;;25.20;28.00;;;;;;5094386;28;20453;-53
2023/05/14 10:25:22;;;;;;;6.40;5.80;;;25.30;28.10;;;;;;5094242;28;20788;-54
2023/05/14 10:27:48;;;;;;;7.97;7.27;;;25.30;27.60;;;;;;5094239;28;20444;-53
2023/05/14 10:30:14;;;;;;;9.00;8.10;;;25.20;27.00;;;;;;5094149;28;20921;-53
2023/05/14 10:32:42;;;;;;;6.70;6.00;;;25.10;28.40;;;;;;5093730;28;20465;-53
2023/05/14 10:35:16;;;;;;;5.40;4.90;;;25.20;28.00;;;;;;5094411;28;20179;-54
2023/05/14 10:37:44;;;;;;;6.90;6.30;;;25.30;28.00;;;;;;5094266;28;20504;-53
2023/05/14 10:40:11;;;;;;;5.93;5.43;;;25.30;27.30;;;;;;5093677;28;20426;-53
2023/05/14 10:42:39;;;;;;;5.70;5.20;;;25.50;28.70;;;;;;5094008;28;20994;-53
2023/05/14 10:45:15;;;;;;;6.70;5.67;;;25.60;26.50;;;;;;5094129;28;20492;-53
2023/05/14 10:47:44;;;;;;;7.83;5.43;;;25.50;27.00;;;;;;5093285;28;20426;-54
2023/05/14 10:50:13;;;;;;;5.13;4.73;;;25.30;26.70;;;;;;5093446;28;20445;-54
2023/05/14 10:52:43;;;;;;;5.13;4.73;;;25.00;26.70;;;;;;5093811;28;20436;-53
2023/05/14 10:55:12;;;;;;;5.63;5.00;;;24.80;26.90;;;;;;5094081;28;20420;-52
2023/05/14 10:57:40;;;;;;;6.17;5.57;;;24.80;28.10;;;;;;5093954;28;20418;-52
2023/05/14 11:00:07;;;;;;;6.90;6.20;;;24.80;28.10;;;;;;5092879;28;20429;-53
2023/05/14 11:02:37;;;;;;;9.20;8.30;;;24.90;28.10;;;;;;5093350;28;20923;-53
2023/05/14 11:05:18;;;;;;;6.33;5.63;;;25.10;28.90;;;;;;5093640;28;20394;-52
2023/05/14 11:07:46;;;;;;;6.07;5.57;;;25.50;28.00;;;;;;5093603;28;20398;-53
2023/05/14 11:10:14;;;;;;;5.80;5.30;;;25.70;27.00;;;;;;5093120;28;20470;-53
2023/05/14 11:12:43;;;;;;;5.73;5.13;;;25.80;27.50;;;;;;5093595;28;20417;-54
2023/05/14 11:15:11;;;;;;;4.93;4.53;;;26.10;27.70;;;;;;5093360;28;20915;-53
2023/05/14 11:17:39;;;;;;;4.87;4.37;;;26.20;25.90;;;;;;5092157;28;20498;-53
2023/05/14 11:20:06;;;;;;;4.73;4.33;;;26.30;25.50;;;;;;5093304;28;20446;-53
2023/05/14 11:22:36;;;;;;;4.53;4.13;;;26.30;26.00;;;;;;5093233;28;20416;-53
2023/05/14 11:25:03;;;;;;;5.00;4.53;;;26.30;26.40;;;;;;5093265;28;20424;-54
2023/05/14 11:27:30;;;;;;;4.70;4.30;;;26.40;25.20;;;;;;5093307;28;20433;-54
2023/05/14 11:29:56;;;;;;;4.80;4.33;;;26.40;24.80;;;;;;5092743;28;20421;-54
2023/05/14 11:32:23;;;;;;;4.77;4.37;;;26.30;25.30;;;;;;5093121;28;20417;-54
2023/05/14 11:34:48;;;;;;;5.53;5.00;;;26.20;25.40;;;;;;5093014;28;20413;-54
2023/05/14 11:37:15;;;;;;;4.80;4.40;;;26.10;26.00;;;;;;5092960;28;20406;-53
2023/05/14 11:39:52;;;;;;;5.13;4.63;;;26.00;25.60;;;;;;5092644;28;20164;-56
2023/05/14 11:42:18;;;;;;;5.37;4.87;;;25.90;26.20;;;;;;5092963;28;20812;-56
2023/05/14 11:44:49;;;;;;;5.10;4.60;;;25.90;24.80;;;;;;5092717;28;20401;-56
2023/05/14 11:47:17;;;;;;;5.70;5.20;;;25.70;25.30;;;;;;5092752;28;20938;-55
2023/05/14 11:49:43;;;;;;;5.03;4.53;;;25.50;25.40;;;;;;5092449;28;20394;-56
2023/05/14 11:52:10;;;;;;;5.20;4.70;;;25.40;27.30;;;;;;5092601;28;20477;-56
2023/05/14 11:54:37;;;;;;;4.43;4.10;;;25.50;25.60;;;;;;5092753;28;20398;-56
2023/05/14 11:57:08;;;;;;;4.80;4.40;;;25.40;26.50;;;;;;5092704;28;20462;-56
2023/05/14 11:59:34;;;;;;;5.67;4.87;;;25.40;26.40;;;;;;5092329;28;20417;-56
2023/05/14 12:02:01;;;;;;;6.10;5.50;;;25.40;26.10;;;;;;5093522;28;20395;-56
2023/05/14 12:04:28;;;;;;;8.10;6.10;;;25.30;27.10;;;;;;5094011;28;20485;-55
2023/05/14 12:06:56;;;;;;;5.93;4.77;;;25.50;28.20;;;;;;5094002;28;20803;-56
2023/05/14 12:09:22;;;;;;;5.00;4.60;;;25.50;27.40;;;;;;5094013;28;20422;-56
2023/05/14 12:11:50;;;;;;;5.37;4.97;;;25.60;27.40;;;;;;5093817;28;20465;-57
2023/05/14 12:14:23;;;;;;;6.80;4.40;;;25.70;26.70;;;;;;5093582;28;20401;-55
2023/05/14 12:16:50;;;;;;;8.10;4.80;;;25.90;26.90;;;;;;5093942;28;20798;-56
2023/05/14 12:19:18;;;;;;;5.00;4.60;;;25.90;26.00;;;;;;5093961;28;20410;-54
2023/05/14 12:21:46;;;;;;;5.60;4.97;;;26.10;26.10;;;;;;5093925;28;20824;-56
2023/05/14 12:24:14;;;;;;;5.10;4.60;;;26.10;25.00;;;;;;5093816;28;20942;-56
2023/05/14 12:26:46;;;;;;;5.13;4.63;;;26.00;26.30;;;;;;5093661;28;20410;-55
2023/05/14 12:29:13;;;;;;;6.20;4.47;;;26.10;26.40;;;;;;5093597;28;20394;-55
2023/05/14 12:31:49;;;;;;;5.07;4.60;;;26.10;26.40;;;;;;5093388;28;20508;-56
2023/05/14 12:34:16;;;;;;;5.17;4.43;;;26.10;26.50;;;;;;5093521;28;20895;-56